sensor_id;sensor_type;location;lat;lon;timestamp;temperature;humidity
64843;DHT22;51310;52.198;5.422;2023-03-01T00:01:02;-2.40;99.90
64843;DHT22;51310;52.198;5.422;2023-03-01T00:03:34;-2.40;99.90
64843;DHT22;51310;52.198;5.422;2023-03-01T00:06:00;-2.40;99.90
64843;DHT22;51310;52.198;5.422;2023-03-01T00:08:27;-2.40;99.90
64843;DHT22;51310;52.198;5.422;2023-03-01T00:11:07;-2.40;99.90
64843;DHT22;51310;52.198;5.422;2023-03-01T00:13:38;-2.40;99.90
64843;DHT22;51310;52.198;5.422;2023-03-01T00:16:41;-2.40;99.90
64843;DHT22;51310;52.198;5.422;2023-03-01T00:19:04;-2.40;99.90
64843;DHT22;51310;52.198;5.422;2023-03-01T00:21:30;-2.30;99.90
64843;DHT22;51310;52.198;5.422;2023-03-01T00:23:57;-2.30;99.90
64843;DHT22;51310;52.198;5.422;2023-03-01T00:26:24;-2.30;99.90
64843;DHT22;51310;52.198;5.422;2023-03-01T00:28:51;-2.30;99.90
64843;DHT22;51310;52.198;5.422;2023-03-01T00:31:20;-2.30;99.90
64843;DHT22;51310;52.198;5.422;2023-03-01T00:33:48;-2.30;99.90
64843;DHT22;51310;52.198;5.422;2023-03-01T00:36:17;-2.30;99.90
64843;DHT22;51310;52.198;5.422;2023-03-01T00:38:44;-2.40;99.90
64843;DHT22;51310;52.198;5.422;2023-03-01T00:41:13;-2.40;99.90
64843;DHT22;51310;52.198;5.422;2023-03-01T00:43:41;-2.40;99.90
64843;DHT22;51310;52.198;5.422;2023-03-01T00:46:10;-2.40;99.90
64843;DHT22;51310;52.198;5.422;2023-03-01T00:48:40;-2.40;99.90
64843;DHT22;51310;52.198;5.422;2023-03-01T00:51:10;-2.40;99.90
64843;DHT22;51310;52.198;5.422;2023-03-01T00:53:59;-2.40;99.90
64843;DHT22;51310;52.198;5.422;2023-03-01T00:56:26;-2.50;99.90
64843;DHT22;51310;52.198;5.422;2023-03-01T00:58:52;-2.50;99.90
64843;DHT22;51310;52.198;5.422;2023-03-01T01:01:24;-2.50;99.90
64843;DHT22;51310;52.198;5.422;2023-03-01T01:06:42;-2.60;99.90
64843;DHT22;51310;52.198;5.422;2023-03-01T01:09:10;-2.60;99.90
64843;DHT22;51310;52.198;5.422;2023-03-01T01:11:43;-2.60;99.90
64843;DHT22;51310;52.198;5.422;2023-03-01T01:14:11;-2.60;99.90
64843;DHT22;51310;52.198;5.422;2023-03-01T01:16:37;-2.60;99.90
64843;DHT22;51310;52.198;5.422;2023-03-01T01:19:02;-2.60;99.90
64843;DHT22;51310;52.198;5.422;2023-03-01T01:21:29;-2.60;99.90
64843;DHT22;51310;52.198;5.422;2023-03-01T01:23:55;-2.60;99.90
64843;DHT22;51310;52.198;5.422;2023-03-01T01:26:25;-2.60;99.90
64843;DHT22;51310;52.198;5.422;2023-03-01T01:28:55;-2.60;99.90
64843;DHT22;51310;52.198;5.422;2023-03-01T01:31:23;-2.70;99.90
64843;DHT22;51310;52.198;5.422;2023-03-01T01:33:49;-2.70;99.90
64843;DHT22;51310;52.198;5.422;2023-03-01T01:36:16;-2.70;99.90
64843;DHT22;51310;52.198;5.422;2023-03-01T01:38:42;-2.70;99.90
64843;DHT22;51310;52.198;5.422;2023-03-01T01:41:09;-2.70;99.90
64843;DHT22;51310;52.198;5.422;2023-03-01T01:43:45;-2.70;99.90
64843;DHT22;51310;52.198;5.422;2023-03-01T01:51:40;-2.70;99.90
64843;DHT22;51310;52.198;5.422;2023-03-01T01:54:22;-2.70;99.90
64843;DHT22;51310;52.198;5.422;2023-03-01T01:56:56;-2.70;99.90
64843;DHT22;51310;52.198;5.422;2023-03-01T01:59:27;-2.80;99.90
64843;DHT22;51310;52.198;5.422;2023-03-01T02:01:54;-2.80;99.90
64843;DHT22;51310;52.198;5.422;2023-03-01T02:04:20;-2.80;99.90
64843;DHT22;51310;52.198;5.422;2023-03-01T02:06:53;-2.80;99.90
64843;DHT22;51310;52.198;5.422;2023-03-01T02:09:23;-2.80;99.90
64843;DHT22;51310;52.198;5.422;2023-03-01T02:11:50;-2.80;99.90
64843;DHT22;51310;52.198;5.422;2023-03-01T02:14:17;-2.80;99.90
64843;DHT22;51310;52.198;5.422;2023-03-01T02:16:43;-2.80;99.90
64843;DHT22;51310;52.198;5.422;2023-03-01T02:19:16;-2.90;99.90
64843;DHT22;51310;52.198;5.422;2023-03-01T02:22:18;-2.90;99.90
64843;DHT22;51310;52.198;5.422;2023-03-01T02:25:05;-2.80;99.90
64843;DHT22;51310;52.198;5.422;2023-03-01T02:30:33;-2.80;99.90
64843;DHT22;51310;52.198;5.422;2023-03-01T02:33:00;-2.90;99.90
64843;DHT22;51310;52.198;5.422;2023-03-01T02:35:37;-2.90;99.90
64843;DHT22;51310;52.198;5.422;2023-03-01T02:38:07;-2.90;99.90
64843;DHT22;51310;52.198;5.422;2023-03-01T02:40:36;-2.90;99.90
64843;DHT22;51310;52.198;5.422;2023-03-01T02:43:08;-2.90;99.90
64843;DHT22;51310;52.198;5.422;2023-03-01T02:45:37;-2.90;99.90
64843;DHT22;51310;52.198;5.422;2023-03-01T02:48:03;-2.90;99.90
64843;DHT22;51310;52.198;5.422;2023-03-01T02:53:16;-3.00;99.90
64843;DHT22;51310;52.198;5.422;2023-03-01T02:55:51;-3.10;99.90
64843;DHT22;51310;52.198;5.422;2023-03-01T02:58:16;-3.10;99.90
64843;DHT22;51310;52.198;5.422;2023-03-01T03:00:42;-3.10;99.90
64843;DHT22;51310;52.198;5.422;2023-03-01T03:03:16;-3.10;99.90
64843;DHT22;51310;52.198;5.422;2023-03-01T03:05:44;-3.20;99.90
64843;DHT22;51310;52.198;5.422;2023-03-01T03:08:10;-3.20;99.90
64843;DHT22;51310;52.198;5.422;2023-03-01T03:10:39;-3.20;99.90
64843;DHT22;51310;52.198;5.422;2023-03-01T03:13:12;-3.20;99.90
64843;DHT22;51310;52.198;5.422;2023-03-01T03:15:40;-3.20;99.90
64843;DHT22;51310;52.198;5.422;2023-03-01T03:18:10;-3.20;99.90
64843;DHT22;51310;52.198;5.422;2023-03-01T03:20:40;-3.20;99.90
64843;DHT22;51310;52.198;5.422;2023-03-01T03:23:06;-3.20;99.90
64843;DHT22;51310;52.198;5.422;2023-03-01T03:25:32;-3.20;99.90
64843;DHT22;51310;52.198;5.422;2023-03-01T03:27:58;-3.20;99.90
64843;DHT22;51310;52.198;5.422;2023-03-01T03:30:26;-3.20;99.90
64843;DHT22;51310;52.198;5.422;2023-03-01T03:32:54;-3.20;99.90
64843;DHT22;51310;52.198;5.422;2023-03-01T03:35:23;-3.30;99.90
64843;DHT22;51310;52.198;5.422;2023-03-01T03:37:59;-3.40;99.90
64843;DHT22;51310;52.198;5.422;2023-03-01T03:40:37;-3.40;99.90
64843;DHT22;51310;52.198;5.422;2023-03-01T03:43:23;-3.40;99.90
64843;DHT22;51310;52.198;5.422;2023-03-01T03:45:50;-3.40;99.90
64843;DHT22;51310;52.198;5.422;2023-03-01T03:48:17;-3.40;99.90
64843;DHT22;51310;52.198;5.422;2023-03-01T03:50:55;-3.40;99.90
64843;DHT22;51310;52.198;5.422;2023-03-01T03:53:22;-3.40;99.90
64843;DHT22;51310;52.198;5.422;2023-03-01T03:55:50;-3.40;99.90
64843;DHT22;51310;52.198;5.422;2023-03-01T03:58:17;-3.40;99.90
64843;DHT22;51310;52.198;5.422;2023-03-01T04:00:46;-3.40;99.90
64843;DHT22;51310;52.198;5.422;2023-03-01T04:03:14;-3.50;99.90
64843;DHT22;51310;52.198;5.422;2023-03-01T04:05:42;-3.50;99.90
64843;DHT22;51310;52.198;5.422;2023-03-01T04:08:09;-3.50;99.90
64843;DHT22;51310;52.198;5.422;2023-03-01T04:10:40;-3.60;99.90
64843;DHT22;51310;52.198;5.422;2023-03-01T04:13:19;-3.60;99.90
64843;DHT22;51310;52.198;5.422;2023-03-01T04:15:48;-3.70;99.90
64843;DHT22;51310;52.198;5.422;2023-03-01T04:18:17;-3.80;99.90
64843;DHT22;51310;52.198;5.422;2023-03-01T04:20:45;-3.80;99.90
64843;DHT22;51310;52.198;5.422;2023-03-01T04:23:17;-3.80;99.90
64843;DHT22;51310;52.198;5.422;2023-03-01T04:25:55;-3.80;99.90
64843;DHT22;51310;52.198;5.422;2023-03-01T04:28:30;-3.80;99.90
64843;DHT22;51310;52.198;5.422;2023-03-01T04:31:07;-3.80;99.90
64843;DHT22;51310;52.198;5.422;2023-03-01T04:33:43;-3.90;99.90
64843;DHT22;51310;52.198;5.422;2023-03-01T04:36:10;-3.90;99.90
64843;DHT22;51310;52.198;5.422;2023-03-01T04:38:38;-3.90;99.90
64843;DHT22;51310;52.198;5.422;2023-03-01T04:41:06;-3.80;99.90
64843;DHT22;51310;52.198;5.422;2023-03-01T04:43:34;-3.80;99.90
64843;DHT22;51310;52.198;5.422;2023-03-01T04:46:04;-3.80;99.90
64843;DHT22;51310;52.198;5.422;2023-03-01T04:48:37;-3.80;99.90
64843;DHT22;51310;52.198;5.422;2023-03-01T04:51:04;-3.80;99.90
64843;DHT22;51310;52.198;5.422;2023-03-01T04:53:32;-3.80;99.90
64843;DHT22;51310;52.198;5.422;2023-03-01T04:55:58;-3.80;99.90
64843;DHT22;51310;52.198;5.422;2023-03-01T04:58:25;-3.80;99.90
64843;DHT22;51310;52.198;5.422;2023-03-01T05:00:52;-3.90;99.90
64843;DHT22;51310;52.198;5.422;2023-03-01T05:03:19;-3.90;99.90
64843;DHT22;51310;52.198;5.422;2023-03-01T05:05:47;-3.90;99.90
64843;DHT22;51310;52.198;5.422;2023-03-01T05:08:15;-3.90;99.90
64843;DHT22;51310;52.198;5.422;2023-03-01T05:10:50;-3.90;99.90
64843;DHT22;51310;52.198;5.422;2023-03-01T05:13:17;-3.90;99.90
64843;DHT22;51310;52.198;5.422;2023-03-01T05:15:58;-4.00;99.90
64843;DHT22;51310;52.198;5.422;2023-03-01T05:18:26;-4.00;99.90
64843;DHT22;51310;52.198;5.422;2023-03-01T05:20:54;-4.00;99.90
64843;DHT22;51310;52.198;5.422;2023-03-01T05:23:22;-4.00;99.90
64843;DHT22;51310;52.198;5.422;2023-03-01T05:25:48;-4.00;99.90
64843;DHT22;51310;52.198;5.422;2023-03-01T05:28:15;-4.00;99.90
64843;DHT22;51310;52.198;5.422;2023-03-01T05:30:41;-4.00;99.90
64843;DHT22;51310;52.198;5.422;2023-03-01T05:33:08;-4.00;99.90
64843;DHT22;51310;52.198;5.422;2023-03-01T05:35:39;-4.00;99.90
64843;DHT22;51310;52.198;5.422;2023-03-01T05:38:07;-4.10;99.90
64843;DHT22;51310;52.198;5.422;2023-03-01T05:40:34;-4.10;99.90
64843;DHT22;51310;52.198;5.422;2023-03-01T05:43:00;-4.20;99.90
64843;DHT22;51310;52.198;5.422;2023-03-01T05:45:27;-4.30;99.90
64843;DHT22;51310;52.198;5.422;2023-03-01T05:47:53;-4.30;99.90
64843;DHT22;51310;52.198;5.422;2023-03-01T05:50:28;-4.30;99.90
64843;DHT22;51310;52.198;5.422;2023-03-01T05:53:02;-4.40;99.90
64843;DHT22;51310;52.198;5.422;2023-03-01T05:55:39;-4.40;99.90
64843;DHT22;51310;52.198;5.422;2023-03-01T05:58:09;-4.40;99.90
64843;DHT22;51310;52.198;5.422;2023-03-01T06:00:37;-4.40;99.90
64843;DHT22;51310;52.198;5.422;2023-03-01T06:03:03;-4.50;99.90
64843;DHT22;51310;52.198;5.422;2023-03-01T06:05:29;-4.60;99.90
64843;DHT22;51310;52.198;5.422;2023-03-01T06:07:59;-4.60;99.90
64843;DHT22;51310;52.198;5.422;2023-03-01T06:10:25;-4.60;99.90
64843;DHT22;51310;52.198;5.422;2023-03-01T06:12:51;-4.60;99.90
64843;DHT22;51310;52.198;5.422;2023-03-01T06:15:17;-4.60;99.90
64843;DHT22;51310;52.198;5.422;2023-03-01T06:17:45;-4.60;99.90
64843;DHT22;51310;52.198;5.422;2023-03-01T06:20:16;-4.60;99.90
64843;DHT22;51310;52.198;5.422;2023-03-01T06:22:45;-4.60;99.90
64843;DHT22;51310;52.198;5.422;2023-03-01T06:25:13;-4.60;99.90
64843;DHT22;51310;52.198;5.422;2023-03-01T06:27:41;-4.60;99.90
64843;DHT22;51310;52.198;5.422;2023-03-01T06:30:09;-4.60;99.90
64843;DHT22;51310;52.198;5.422;2023-03-01T06:32:37;-4.60;99.90
64843;DHT22;51310;52.198;5.422;2023-03-01T06:35:07;-4.60;99.90
64843;DHT22;51310;52.198;5.422;2023-03-01T06:37:33;-4.60;99.90
64843;DHT22;51310;52.198;5.422;2023-03-01T06:40:01;-4.60;99.90
64843;DHT22;51310;52.198;5.422;2023-03-01T06:42:34;-4.60;99.90
64843;DHT22;51310;52.198;5.422;2023-03-01T06:45:01;-4.60;99.90
64843;DHT22;51310;52.198;5.422;2023-03-01T06:47:26;-4.60;99.90
64843;DHT22;51310;52.198;5.422;2023-03-01T06:49:52;-4.60;99.90
64843;DHT22;51310;52.198;5.422;2023-03-01T06:52:18;-4.60;99.90
64843;DHT22;51310;52.198;5.422;2023-03-01T06:54:44;-4.60;99.90
64843;DHT22;51310;52.198;5.422;2023-03-01T06:57:09;-4.60;99.90
64843;DHT22;51310;52.198;5.422;2023-03-01T06:59:35;-4.50;99.90
64843;DHT22;51310;52.198;5.422;2023-03-01T07:02:01;-4.40;99.90
64843;DHT22;51310;52.198;5.422;2023-03-01T07:04:26;-4.30;99.90
64843;DHT22;51310;52.198;5.422;2023-03-01T07:06:54;-4.20;99.90
64843;DHT22;51310;52.198;5.422;2023-03-01T07:09:21;-4.30;99.90
64843;DHT22;51310;52.198;5.422;2023-03-01T07:11:48;-4.20;99.90
64843;DHT22;51310;52.198;5.422;2023-03-01T07:14:15;-4.30;99.90
64843;DHT22;51310;52.198;5.422;2023-03-01T07:16:41;-4.20;99.90
64843;DHT22;51310;52.198;5.422;2023-03-01T07:19:06;-4.20;99.90
64843;DHT22;51310;52.198;5.422;2023-03-01T07:21:32;-4.10;99.90
64843;DHT22;51310;52.198;5.422;2023-03-01T07:23:58;-4.10;99.90
64843;DHT22;51310;52.198;5.422;2023-03-01T07:26:23;-4.00;99.90
64843;DHT22;51310;52.198;5.422;2023-03-01T07:28:49;-4.00;99.90
64843;DHT22;51310;52.198;5.422;2023-03-01T07:31:15;-3.80;99.90
64843;DHT22;51310;52.198;5.422;2023-03-01T07:33:41;-3.70;99.90
64843;DHT22;51310;52.198;5.422;2023-03-01T07:36:07;-3.60;99.90
64843;DHT22;51310;52.198;5.422;2023-03-01T07:38:33;-3.50;99.90
64843;DHT22;51310;52.198;5.422;2023-03-01T07:41:00;-3.50;99.90
64843;DHT22;51310;52.198;5.422;2023-03-01T07:43:29;-3.40;99.90
64843;DHT22;51310;52.198;5.422;2023-03-01T07:45:58;-3.40;99.90
64843;DHT22;51310;52.198;5.422;2023-03-01T07:48:25;-3.30;99.90
64843;DHT22;51310;52.198;5.422;2023-03-01T07:50:51;-3.20;99.90
64843;DHT22;51310;52.198;5.422;2023-03-01T07:53:17;-3.20;99.90
64843;DHT22;51310;52.198;5.422;2023-03-01T07:55:42;-3.20;99.90
64843;DHT22;51310;52.198;5.422;2023-03-01T07:58:08;-3.10;99.90
64843;DHT22;51310;52.198;5.422;2023-03-01T08:00:34;-3.00;99.90
64843;DHT22;51310;52.198;5.422;2023-03-01T08:03:00;-3.00;99.90
64843;DHT22;51310;52.198;5.422;2023-03-01T08:05:27;-2.90;99.90
64843;DHT22;51310;52.198;5.422;2023-03-01T08:07:54;-2.80;99.90
64843;DHT22;51310;52.198;5.422;2023-03-01T08:10:19;-2.70;99.90
64843;DHT22;51310;52.198;5.422;2023-03-01T08:12:45;-2.60;99.90
64843;DHT22;51310;52.198;5.422;2023-03-01T08:15:11;-2.60;99.90
64843;DHT22;51310;52.198;5.422;2023-03-01T08:17:37;-2.50;99.90
64843;DHT22;51310;52.198;5.422;2023-03-01T08:20:03;-2.40;99.90
64843;DHT22;51310;52.198;5.422;2023-03-01T08:22:32;-2.30;99.90
64843;DHT22;51310;52.198;5.422;2023-03-01T08:24:57;-2.20;99.90
64843;DHT22;51310;52.198;5.422;2023-03-01T08:27:23;-2.10;99.90
64843;DHT22;51310;52.198;5.422;2023-03-01T08:29:49;-2.10;99.90
64843;DHT22;51310;52.198;5.422;2023-03-01T08:32:14;-1.90;99.90
64843;DHT22;51310;52.198;5.422;2023-03-01T08:34:40;-1.80;99.90
64843;DHT22;51310;52.198;5.422;2023-03-01T08:37:06;-1.70;99.90
64843;DHT22;51310;52.198;5.422;2023-03-01T08:39:32;-1.60;99.90
64843;DHT22;51310;52.198;5.422;2023-03-01T08:41:58;-1.50;99.90
64843;DHT22;51310;52.198;5.422;2023-03-01T08:44:23;-1.40;99.90
64843;DHT22;51310;52.198;5.422;2023-03-01T08:46:50;-1.30;99.90
64843;DHT22;51310;52.198;5.422;2023-03-01T08:49:18;-1.30;99.90
64843;DHT22;51310;52.198;5.422;2023-03-01T08:51:45;-1.20;99.90
64843;DHT22;51310;52.198;5.422;2023-03-01T08:54:18;-1.10;99.90
64843;DHT22;51310;52.198;5.422;2023-03-01T08:56:46;-1.00;99.90
64843;DHT22;51310;52.198;5.422;2023-03-01T08:59:14;-1.00;99.90
64843;DHT22;51310;52.198;5.422;2023-03-01T09:01:41;-0.90;99.90
64843;DHT22;51310;52.198;5.422;2023-03-01T09:04:14;-0.70;99.90
64843;DHT22;51310;52.198;5.422;2023-03-01T09:06:41;-0.70;99.90
64843;DHT22;51310;52.198;5.422;2023-03-01T09:09:13;-0.60;99.90
64843;DHT22;51310;52.198;5.422;2023-03-01T09:11:41;-0.40;99.90
64843;DHT22;51310;52.198;5.422;2023-03-01T09:14:08;-0.30;99.90
64843;DHT22;51310;52.198;5.422;2023-03-01T09:16:34;-0.10;99.90
64843;DHT22;51310;52.198;5.422;2023-03-01T09:19:02;0.00;99.90
64843;DHT22;51310;52.198;5.422;2023-03-01T09:21:28;0.00;99.90
64843;DHT22;51310;52.198;5.422;2023-03-01T09:23:56;0.10;99.90
64843;DHT22;51310;52.198;5.422;2023-03-01T09:26:23;0.30;99.90
64843;DHT22;51310;52.198;5.422;2023-03-01T09:28:52;0.40;99.90
64843;DHT22;51310;52.198;5.422;2023-03-01T09:31:20;0.60;99.90
64843;DHT22;51310;52.198;5.422;2023-03-01T09:33:48;0.80;99.90
64843;DHT22;51310;52.198;5.422;2023-03-01T09:36:18;1.00;99.90
64843;DHT22;51310;52.198;5.422;2023-03-01T09:38:47;1.10;99.90
64843;DHT22;51310;52.198;5.422;2023-03-01T09:44:01;1.50;99.90
64843;DHT22;51310;52.198;5.422;2023-03-01T09:46:41;1.60;99.90
64843;DHT22;51310;52.198;5.422;2023-03-01T09:49:23;1.70;99.90
64843;DHT22;51310;52.198;5.422;2023-03-01T09:54:41;2.00;99.90
64843;DHT22;51310;52.198;5.422;2023-03-01T09:57:17;2.10;99.90
64843;DHT22;51310;52.198;5.422;2023-03-01T10:00:18;2.20;99.90
64843;DHT22;51310;52.198;5.422;2023-03-01T10:03:16;2.30;99.90
64843;DHT22;51310;52.198;5.422;2023-03-01T10:09:07;2.40;99.90
64843;DHT22;51310;52.198;5.422;2023-03-01T10:11:42;2.40;99.90
64843;DHT22;51310;52.198;5.422;2023-03-01T10:14:29;2.50;99.90
64843;DHT22;51310;52.198;5.422;2023-03-01T10:17:12;2.50;99.90
64843;DHT22;51310;52.198;5.422;2023-03-01T10:19:48;2.70;99.90
64843;DHT22;51310;52.198;5.422;2023-03-01T10:22:21;2.70;99.90
64843;DHT22;51310;52.198;5.422;2023-03-01T10:24:54;2.80;99.90
64843;DHT22;51310;52.198;5.422;2023-03-01T10:27:37;2.90;99.90
64843;DHT22;51310;52.198;5.422;2023-03-01T10:30:32;3.10;99.90
64843;DHT22;51310;52.198;5.422;2023-03-01T10:33:16;3.10;99.90
64843;DHT22;51310;52.198;5.422;2023-03-01T10:35:45;3.20;62.90
64843;DHT22;51310;52.198;5.422;2023-03-01T10:38:13;3.30;60.40
64843;DHT22;51310;52.198;5.422;2023-03-01T10:40:56;3.30;59.10
64843;DHT22;51310;52.198;5.422;2023-03-01T10:43:26;3.40;60.80
64843;DHT22;51310;52.198;5.422;2023-03-01T10:45:57;3.50;58.20
64843;DHT22;51310;52.198;5.422;2023-03-01T10:48:26;3.60;58.30
64843;DHT22;51310;52.198;5.422;2023-03-01T10:56:12;3.60;57.70
64843;DHT22;51310;52.198;5.422;2023-03-01T10:58:41;3.70;57.60
64843;DHT22;51310;52.198;5.422;2023-03-01T11:01:35;3.80;57.40
64843;DHT22;51310;52.198;5.422;2023-03-01T11:06:59;4.00;55.90
64843;DHT22;51310;52.198;5.422;2023-03-01T11:09:26;4.00;54.20
64843;DHT22;51310;52.198;5.422;2023-03-01T11:12:03;4.10;54.50
64843;DHT22;51310;52.198;5.422;2023-03-01T11:14:38;4.10;54.20
64843;DHT22;51310;52.198;5.422;2023-03-01T11:17:17;4.10;54.20
64843;DHT22;51310;52.198;5.422;2023-03-01T11:20:01;4.20;53.30
64843;DHT22;51310;52.198;5.422;2023-03-01T11:22:36;4.20;53.90
64843;DHT22;51310;52.198;5.422;2023-03-01T11:25:02;4.30;52.80
64843;DHT22;51310;52.198;5.422;2023-03-01T11:27:32;4.30;52.50
64843;DHT22;51310;52.198;5.422;2023-03-01T11:33:34;4.30;53.40
64843;DHT22;51310;52.198;5.422;2023-03-01T11:38:40;4.50;53.80
64843;DHT22;51310;52.198;5.422;2023-03-01T11:41:16;4.50;51.80
64843;DHT22;51310;52.198;5.422;2023-03-01T11:57:43;4.80;50.90
64843;DHT22;51310;52.198;5.422;2023-03-01T12:12:51;5.10;49.00
64843;DHT22;51310;52.198;5.422;2023-03-01T12:15:33;5.10;48.20
64843;DHT22;51310;52.198;5.422;2023-03-01T12:24:41;5.20;49.50
64843;DHT22;51310;52.198;5.422;2023-03-01T12:33:53;5.30;48.10
64843;DHT22;51310;52.198;5.422;2023-03-01T12:42:36;5.30;49.10
64843;DHT22;51310;52.198;5.422;2023-03-01T12:51:10;5.40;48.60
64843;DHT22;51310;52.198;5.422;2023-03-01T12:53:43;5.50;47.50
64843;DHT22;51310;52.198;5.422;2023-03-01T12:56:15;5.50;46.90
64843;DHT22;51310;52.198;5.422;2023-03-01T13:02:02;5.50;47.20
64843;DHT22;51310;52.198;5.422;2023-03-01T13:04:46;5.60;47.70
64843;DHT22;51310;52.198;5.422;2023-03-01T13:07:42;5.60;47.00
64843;DHT22;51310;52.198;5.422;2023-03-01T13:10:41;5.60;47.20
64843;DHT22;51310;52.198;5.422;2023-03-01T13:13:25;5.60;46.90
64843;DHT22;51310;52.198;5.422;2023-03-01T13:15:53;5.60;47.50
64843;DHT22;51310;52.198;5.422;2023-03-01T13:20:46;5.70;47.90
64843;DHT22;51310;52.198;5.422;2023-03-01T13:28:51;5.80;46.80
64843;DHT22;51310;52.198;5.422;2023-03-01T13:33:51;5.90;46.50
64843;DHT22;51310;52.198;5.422;2023-03-01T13:39:00;5.80;47.30
64843;DHT22;51310;52.198;5.422;2023-03-01T13:46:47;5.80;46.30
64843;DHT22;51310;52.198;5.422;2023-03-01T13:49:18;5.80;46.90
64843;DHT22;51310;52.198;5.422;2023-03-01T13:51:47;5.90;46.60
64843;DHT22;51310;52.198;5.422;2023-03-01T13:54:16;5.90;45.20
64843;DHT22;51310;52.198;5.422;2023-03-01T13:56:50;5.90;45.00
64843;DHT22;51310;52.198;5.422;2023-03-01T13:59:18;5.80;45.50
64843;DHT22;51310;52.198;5.422;2023-03-01T14:02:12;5.80;45.60
64843;DHT22;51310;52.198;5.422;2023-03-01T14:04:38;5.80;45.50
64843;DHT22;51310;52.198;5.422;2023-03-01T14:07:18;5.80;45.20
64843;DHT22;51310;52.198;5.422;2023-03-01T14:09:47;5.90;45.70
64843;DHT22;51310;52.198;5.422;2023-03-01T14:12:26;5.80;44.90
64843;DHT22;51310;52.198;5.422;2023-03-01T14:15:13;5.80;45.70
64843;DHT22;51310;52.198;5.422;2023-03-01T14:20:32;5.90;44.50
64843;DHT22;51310;52.198;5.422;2023-03-01T14:23:10;5.90;45.50
64843;DHT22;51310;52.198;5.422;2023-03-01T14:25:38;6.00;45.40
64843;DHT22;51310;52.198;5.422;2023-03-01T14:30:55;6.00;45.10
64843;DHT22;51310;52.198;5.422;2023-03-01T14:33:33;6.00;45.10
64843;DHT22;51310;52.198;5.422;2023-03-01T14:36:10;6.00;45.10
64843;DHT22;51310;52.198;5.422;2023-03-01T14:38:39;6.00;44.70
64843;DHT22;51310;52.198;5.422;2023-03-01T14:41:14;6.00;44.90
64843;DHT22;51310;52.198;5.422;2023-03-01T14:43:45;6.00;45.50
64843;DHT22;51310;52.198;5.422;2023-03-01T14:46:38;6.10;46.00
64843;DHT22;51310;52.198;5.422;2023-03-01T14:49:19;6.10;46.20
64843;DHT22;51310;52.198;5.422;2023-03-01T14:52:02;6.00;45.80
64843;DHT22;51310;52.198;5.422;2023-03-01T14:54:40;6.00;46.20
64843;DHT22;51310;52.198;5.422;2023-03-01T14:57:26;6.10;45.40
64843;DHT22;51310;52.198;5.422;2023-03-01T14:59:54;6.00;45.50
64843;DHT22;51310;52.198;5.422;2023-03-01T15:02:25;6.00;45.20
64843;DHT22;51310;52.198;5.422;2023-03-01T15:05:00;6.00;45.00
64843;DHT22;51310;52.198;5.422;2023-03-01T15:07:33;6.00;45.10
64843;DHT22;51310;52.198;5.422;2023-03-01T15:10:04;6.10;46.00
64843;DHT22;51310;52.198;5.422;2023-03-01T15:12:35;6.10;45.30
64843;DHT22;51310;52.198;5.422;2023-03-01T15:15:32;6.10;45.80
64843;DHT22;51310;52.198;5.422;2023-03-01T15:18:27;6.00;44.90
64843;DHT22;51310;52.198;5.422;2023-03-01T15:20:55;6.00;45.00
64843;DHT22;51310;52.198;5.422;2023-03-01T15:23:30;6.00;45.70
64843;DHT22;51310;52.198;5.422;2023-03-01T15:25:56;6.00;45.80
64843;DHT22;51310;52.198;5.422;2023-03-01T15:28:40;6.00;46.50
64843;DHT22;51310;52.198;5.422;2023-03-01T15:31:20;6.00;46.70
64843;DHT22;51310;52.198;5.422;2023-03-01T15:33:49;6.00;45.30
64843;DHT22;51310;52.198;5.422;2023-03-01T15:41:58;5.90;45.90
64843;DHT22;51310;52.198;5.422;2023-03-01T15:44:36;5.90;46.20
64843;DHT22;51310;52.198;5.422;2023-03-01T15:47:22;5.90;46.10
64843;DHT22;51310;52.198;5.422;2023-03-01T15:49:52;5.90;46.20
64843;DHT22;51310;52.198;5.422;2023-03-01T15:52:25;5.80;46.90
64843;DHT22;51310;52.198;5.422;2023-03-01T15:55:01;5.80;47.20
64843;DHT22;51310;52.198;5.422;2023-03-01T15:57:31;5.70;47.30
64843;DHT22;51310;52.198;5.422;2023-03-01T15:59:57;5.70;46.80
64843;DHT22;51310;52.198;5.422;2023-03-01T16:02:23;5.80;47.50
64843;DHT22;51310;52.198;5.422;2023-03-01T16:04:50;5.80;47.30
64843;DHT22;51310;52.198;5.422;2023-03-01T16:07:16;5.70;47.20
64843;DHT22;51310;52.198;5.422;2023-03-01T16:09:42;5.70;47.20
64843;DHT22;51310;52.198;5.422;2023-03-01T16:12:16;5.70;47.00
64843;DHT22;51310;52.198;5.422;2023-03-01T16:14:42;5.70;47.50
64843;DHT22;51310;52.198;5.422;2023-03-01T16:17:08;5.70;47.10
64843;DHT22;51310;52.198;5.422;2023-03-01T16:19:36;5.70;47.00
64843;DHT22;51310;52.198;5.422;2023-03-01T16:22:03;5.70;46.80
64843;DHT22;51310;52.198;5.422;2023-03-01T16:24:29;5.60;47.30
64843;DHT22;51310;52.198;5.422;2023-03-01T16:26:55;5.60;47.50
64843;DHT22;51310;52.198;5.422;2023-03-01T16:29:21;5.50;47.30
64843;DHT22;51310;52.198;5.422;2023-03-01T16:31:46;5.50;47.70
64843;DHT22;51310;52.198;5.422;2023-03-01T16:34:13;5.50;48.10
64843;DHT22;51310;52.198;5.422;2023-03-01T16:36:38;5.40;48.50
64843;DHT22;51310;52.198;5.422;2023-03-01T16:39:04;5.30;49.00
64843;DHT22;51310;52.198;5.422;2023-03-01T16:41:31;5.30;49.10
64843;DHT22;51310;52.198;5.422;2023-03-01T16:43:57;5.30;49.40
64843;DHT22;51310;52.198;5.422;2023-03-01T16:46:25;5.20;49.80
64843;DHT22;51310;52.198;5.422;2023-03-01T16:48:54;5.10;50.20
64843;DHT22;51310;52.198;5.422;2023-03-01T16:51:22;5.10;50.20
64843;DHT22;51310;52.198;5.422;2023-03-01T16:53:49;5.00;50.60
64843;DHT22;51310;52.198;5.422;2023-03-01T16:56:17;5.00;50.80
64843;DHT22;51310;52.198;5.422;2023-03-01T16:58:44;4.90;50.80
64843;DHT22;51310;52.198;5.422;2023-03-01T17:01:12;4.80;51.20
64843;DHT22;51310;52.198;5.422;2023-03-01T17:03:41;4.70;51.30
64843;DHT22;51310;52.198;5.422;2023-03-01T17:06:12;4.70;51.70
64843;DHT22;51310;52.198;5.422;2023-03-01T17:08:40;4.70;51.90
64843;DHT22;51310;52.198;5.422;2023-03-01T17:11:09;4.70;51.70
64843;DHT22;51310;52.198;5.422;2023-03-01T17:13:37;4.50;52.10
64843;DHT22;51310;52.198;5.422;2023-03-01T17:16:09;4.50;52.30
64843;DHT22;51310;52.198;5.422;2023-03-01T17:18:36;4.50;52.50
64843;DHT22;51310;52.198;5.422;2023-03-01T17:21:04;4.30;53.00
64843;DHT22;51310;52.198;5.422;2023-03-01T17:23:31;4.20;53.40
64843;DHT22;51310;52.198;5.422;2023-03-01T17:25:57;4.20;53.80
64843;DHT22;51310;52.198;5.422;2023-03-01T17:28:25;4.10;54.30
64843;DHT22;51310;52.198;5.422;2023-03-01T17:30:53;4.00;54.50
64843;DHT22;51310;52.198;5.422;2023-03-01T17:33:20;3.90;54.70
64843;DHT22;51310;52.198;5.422;2023-03-01T17:35:46;3.90;55.00
64843;DHT22;51310;52.198;5.422;2023-03-01T17:38:16;3.90;54.80
64843;DHT22;51310;52.198;5.422;2023-03-01T17:40:43;3.90;54.60
64843;DHT22;51310;52.198;5.422;2023-03-01T17:43:13;3.80;54.90
64843;DHT22;51310;52.198;5.422;2023-03-01T17:45:40;3.70;55.00
64843;DHT22;51310;52.198;5.422;2023-03-01T17:48:09;3.60;54.90
64843;DHT22;51310;52.198;5.422;2023-03-01T17:50:37;3.50;55.30
64843;DHT22;51310;52.198;5.422;2023-03-01T17:53:05;3.50;55.70
64843;DHT22;51310;52.198;5.422;2023-03-01T17:55:35;3.30;56.00
64843;DHT22;51310;52.198;5.422;2023-03-01T17:58:02;3.30;56.50
64843;DHT22;51310;52.198;5.422;2023-03-01T18:00:29;3.30;56.50